Time;durP1;ratioP1;P1;durP2;ratioP2;P2;SDS_P1;SDS_P2;PMS_P1;PMS_P2;Temp;Humidity;BMP_temperature;BMP_pressure;BME280_temperature;BME280_humidity;BME280_pressure;Samples;Min_cycle;Max_cycle;Signal;HPM_P1;HPM_P2
2023/06/18 00:06:39;;;;;;;1999.90;999.90;;;18.50;83.50;;;;;;6659974;88;20918;-77
2023/06/18 00:16:39;;;;;;;1999.90;999.90;;;18.30;87.50;;;;;;6660339;88;20230;-77
2023/06/18 00:26:40;;;;;;;1999.90;999.90;;;18.50;85.30;;;;;;6668560;88;20543;-76
2023/06/18 00:36:43;;;;;;;1999.90;999.90;;;18.30;86.80;;;;;;6661655;88;20713;-76
2023/06/18 00:46:46;;;;;;;1999.90;999.90;;;18.10;89.40;;;;;;6665807;88;20801;-76
2023/06/18 00:56:52;;;;;;;1999.90;999.90;;;17.90;90.30;;;;;;6667967;88;20200;-76
2023/06/18 01:06:54;;;;;;;1999.90;999.90;;;17.90;91.50;;;;;;6662072;88;20188;-76
2023/06/18 01:16:57;;;;;;;1999.90;999.90;;;17.90;91.70;;;;;;6666157;88;20250;-76
2023/06/18 01:26:59;;;;;;;1999.90;999.90;;;17.90;92.90;;;;;;6662973;88;20191;-76
2023/06/18 01:37:14;;;;;;;1999.90;999.90;;;18.00;91.90;;;;;;6660220;88;20208;-76
2023/06/18 01:47:17;;;;;;;1999.90;999.90;;;17.90;92.90;;;;;;6666057;88;20747;-77
2023/06/18 01:57:18;;;;;;;1999.90;999.90;;;17.80;93.70;;;;;;6662100;88;20253;-78
2023/06/18 02:07:19;;;;;;;1999.90;999.90;;;17.60;95.30;;;;;;6663691;88;21375;-76
2023/06/18 02:17:19;;;;;;;1999.90;999.90;;;17.40;96.50;;;;;;6671912;88;20200;-76
2023/06/18 02:27:20;;;;;;;1999.90;999.90;;;17.30;98.90;;;;;;6667157;88;20192;-76
2023/06/18 02:37:21;;;;;;;1999.90;999.90;;;17.30;99.30;;;;;;6664694;88;20193;-76
2023/06/18 02:47:21;;;;;;;1999.90;999.90;;;17.00;99.90;;;;;;6663910;88;20188;-76
2023/06/18 02:57:22;;;;;;;1999.90;999.90;;;16.90;99.90;;;;;;6668501;88;20238;-76
2023/06/18 03:07:22;;;;;;;1999.90;999.90;;;16.70;99.90;;;;;;6668505;88;20226;-75
2023/06/18 03:17:23;;;;;;;1999.90;999.90;;;16.50;99.90;;;;;;6673787;88;20211;-76
2023/06/18 03:27:24;;;;;;;1999.90;999.90;;;16.70;99.90;;;;;;6660790;88;20623;-76
2023/06/18 03:37:27;;;;;;;1999.90;999.90;;;16.70;99.90;;;;;;6668105;88;20200;-76
2023/06/18 03:47:27;;;;;;;1999.90;999.90;;;16.60;99.90;;;;;;6662749;88;20205;-76
2023/06/18 03:57:29;;;;;;;1999.90;999.90;;;16.50;99.90;;;;;;6663205;88;20195;-76
2023/06/18 04:07:29;;;;;;;1999.90;999.90;;;16.70;99.90;;;;;;6661063;88;20325;-76
2023/06/18 04:17:39;;;;;;;1999.90;999.90;;;16.80;99.90;;;;;;6665926;88;20277;-76
2023/06/18 04:27:39;;;;;;;1999.90;999.90;;;16.80;99.90;;;;;;6662307;88;20195;-76
2023/06/18 04:37:40;;;;;;;1999.90;999.90;;;16.70;99.90;;;;;;6667215;88;20205;-76
2023/06/18 04:47:40;;;;;;;1999.90;999.90;;;16.70;99.90;;;;;;6660959;88;20205;-76
2023/06/18 04:57:41;;;;;;;1999.90;999.90;;;16.90;99.90;;;;;;6661264;88;20216;-76
2023/06/18 05:07:42;;;;;;;1999.90;999.90;;;17.10;99.90;;;;;;6665282;88;20262;-77
2023/06/18 05:17:43;;;;;;;1999.90;999.90;;;17.60;99.90;;;;;;6665332;88;20200;-76
2023/06/18 05:27:43;;;;;;;1999.90;999.90;;;18.00;99.90;;;;;;6668065;88;20624;-77
2023/06/18 05:37:44;;;;;;;1999.90;999.90;;;18.30;99.90;;;;;;6660384;88;20970;-78
2023/06/18 05:47:44;;;;;;;1999.90;999.90;;;18.70;99.90;;;;;;6670998;88;20196;-77
2023/06/18 05:57:46;;;;;;;1999.90;999.90;;;19.20;99.90;;;;;;6664746;88;20374;-77
2023/06/18 06:07:47;;;;;;;1999.90;999.90;;;19.60;99.20;;;;;;6661716;88;20334;-76
2023/06/18 06:17:47;;;;;;;1999.90;999.90;;;19.90;98.20;;;;;;6659052;88;21027;-76
2023/06/18 06:27:48;;;;;;;1999.90;999.90;;;20.40;97.60;;;;;;6664272;88;20309;-77
2023/06/18 06:37:48;;;;;;;1999.90;999.90;;;21.10;95.90;;;;;;6669607;88;20262;-75
2023/06/18 06:47:49;;;;;;;1999.90;999.90;;;21.80;94.30;;;;;;6665837;88;21057;-76
2023/06/18 06:57:49;;;;;;;1999.90;999.90;;;22.00;92.70;;;;;;6664590;88;20188;-75
2023/06/18 07:07:50;;;;;;;1999.90;999.90;;;21.90;92.40;;;;;;6664045;88;20221;-78
2023/06/18 07:17:50;;;;;;;1999.90;999.90;;;22.70;92.40;;;;;;6669560;88;20199;-79
2023/06/18 07:27:51;;;;;;;1999.90;999.90;;;23.60;90.70;;;;;;6670845;88;20184;-78
2023/06/18 07:37:52;;;;;;;1999.90;999.90;;;24.20;88.60;;;;;;6664942;89;20216;-78
2023/06/18 07:47:52;;;;;;;1999.90;999.90;;;24.90;87.90;;;;;;6674206;88;20191;-77
2023/06/18 07:57:53;;;;;;;1999.90;999.90;;;25.20;84.00;;;;;;6669638;88;20206;-77
2023/06/18 08:07:53;;;;;;;1999.90;999.90;;;25.60;81.40;;;;;;6667904;88;20231;-78
2023/06/18 08:17:54;;;;;;;1999.90;999.90;;;26.00;79.20;;;;;;6663599;88;20316;-78
2023/06/18 08:27:56;;;;;;;1999.90;999.90;;;26.10;78.40;;;;;;6678280;88;20208;-78
2023/06/18 08:37:57;;;;;;;1999.90;999.90;;;26.90;76.20;;;;;;6660749;88;20215;-79
2023/06/18 08:47:59;;;;;;;1999.90;999.90;;;27.00;73.80;;;;;;6666877;88;20208;-79
2023/06/18 08:58:09;;;;;;;1999.90;999.90;;;28.10;73.40;;;;;;6658590;88;20686;-78
2023/06/18 09:08:10;;;;;;;1999.90;999.90;;;28.00;71.60;;;;;;6664118;88;20204;-79
2023/06/18 09:18:10;;;;;;;1999.90;999.90;;;28.30;68.30;;;;;;6673238;88;21353;-79
2023/06/18 09:58:48;;;;;;;1999.90;999.90;;;32.30;66.00;;;;;;4533814;84;20241;-79
2023/06/18 10:08:53;;;;;;;1999.90;999.90;;;32.70;63.50;;;;;;6738355;88;20262;-78
2023/06/18 10:19:11;;;;;;;1999.90;999.90;;;33.10;62.40;;;;;;6734514;88;20175;-80
2023/06/18 10:29:12;;;;;;;1999.90;999.90;;;33.80;60.10;;;;;;6746301;88;20193;-80
2023/06/18 10:39:13;;;;;;;1999.90;999.90;;;35.10;59.60;;;;;;6749517;88;20253;-80
2023/06/18 10:49:16;;;;;;;1999.90;999.90;;;35.30;57.60;;;;;;6738675;88;20185;-81
2023/06/18 10:59:31;;;;;;;1999.90;999.90;;;35.50;57.40;;;;;;6756663;87;20229;-83
2023/06/18 11:20:16;;;;;;;1999.90;999.90;;;37.20;54.40;;;;;;6801172;77;20234;-83
2023/06/18 11:30:18;;;;;;;1999.90;999.90;;;36.80;53.80;;;;;;6689913;88;20233;-83
2023/06/18 11:40:29;;;;;;;1999.90;999.90;;;35.70;55.00;;;;;;7090541;77;20199;-85
2023/06/18 12:01:00;;;;;;;1999.90;999.90;;;35.50;54.60;;;;;;3353464;76;21273;-86
2023/06/18 12:11:03;;;;;;;1999.90;999.90;;;36.30;54.30;;;;;;6749785;88;20171;-85
2023/06/18 12:21:05;;;;;;;1999.90;999.90;;;34.60;53.80;;;;;;6715180;88;20257;-86
2023/06/18 12:31:07;;;;;;;1999.90;999.90;;;35.90;53.30;;;;;;6715392;88;20163;-86
2023/06/18 12:41:29;;;;;;;1999.90;999.90;;;35.40;53.40;;;;;;6844496;78;20180;-87
2023/06/18 13:22:07;;;;;;;1999.90;999.90;;;33.20;57.90;;;;;;3968144;76;20183;-85
2023/06/18 13:32:25;;;;;;;1999.90;999.90;;;33.60;57.30;;;;;;6666076;88;20158;-85
2023/06/18 13:42:26;;;;;;;1999.90;999.90;;;34.40;57.60;;;;;;6644640;88;21010;-85
2023/06/18 15:15:37;;;;;;;1999.90;999.90;;;36.00;56.10;;;;;;6843480;76;20171;-86
2023/06/18 15:35:40;;;;;;;1999.90;999.90;;;34.90;54.20;;;;;;6750906;88;20294;-81
2023/06/18 15:45:41;;;;;;;1999.90;999.90;;;34.50;54.70;;;;;;6728195;88;20246;-81
2023/06/18 15:55:42;;;;;;;1999.90;999.90;;;33.80;55.70;;;;;;6729618;88;20213;-81
2023/06/18 16:05:42;;;;;;;1999.90;999.90;;;33.60;55.20;;;;;;6738324;88;20214;-80
2023/06/18 16:15:43;;;;;;;1999.90;999.90;;;34.30;54.60;;;;;;6732324;88;20176;-80
2023/06/18 16:25:43;;;;;;;1999.90;999.90;;;33.40;55.50;;;;;;6729407;88;20513;-81
2023/06/18 16:35:44;;;;;;;1999.90;999.90;;;32.10;56.50;;;;;;6733666;88;20730;-80
2023/06/18 16:45:46;;;;;;;1999.90;999.90;;;31.70;58.10;;;;;;6749811;88;20179;-81
2023/06/18 16:55:46;;;;;;;1999.90;999.90;;;31.20;58.50;;;;;;6750352;88;20168;-82
2023/06/18 17:05:47;;;;;;;1999.90;999.90;;;31.20;59.20;;;;;;6750389;88;20238;-82
2023/06/18 17:15:48;;;;;;;1999.90;999.90;;;31.20;59.90;;;;;;6750248;88;20161;-81
2023/06/18 17:25:48;;;;;;;1999.90;999.90;;;31.00;60.40;;;;;;6740118;88;20188;-81
2023/06/18 17:35:49;;;;;;;1999.90;999.90;;;31.00;60.50;;;;;;6749640;88;20778;-79
2023/06/18 17:46:12;;;;;;;1999.90;999.90;;;30.50;61.30;;;;;;6743231;88;20251;-79
2023/06/18 17:56:10;;;;;;;1999.90;999.90;;;30.20;61.80;;;;;;6732243;88;20168;-79
2023/06/18 18:06:13;;;;;;;1999.90;999.90;;;30.00;63.30;;;;;;6732359;88;20193;-79
2023/06/18 18:16:14;;;;;;;1999.90;999.90;;;29.90;63.60;;;;;;6732554;88;20182;-78
2023/06/18 18:26:14;;;;;;;1999.90;999.90;;;29.80;63.70;;;;;;6734638;88;20171;-79
2023/06/18 18:36:15;;;;;;;1999.90;999.90;;;29.60;63.70;;;;;;6735276;88;20169;-78
2023/06/18 18:46:16;;;;;;;1999.90;999.90;;;29.40;63.60;;;;;;6737877;88;20475;-81
2023/06/18 18:56:17;;;;;;;1999.90;999.90;;;29.30;63.50;;;;;;6739483;88;20858;-78
2023/06/18 19:06:18;;;;;;;1999.90;999.90;;;29.10;64.80;;;;;;6742591;88;20236;-81
2023/06/18 19:16:19;;;;;;;1999.90;999.90;;;28.90;65.20;;;;;;6743284;88;20698;-79
2023/06/18 19:26:20;;;;;;;1999.90;999.90;;;28.70;65.60;;;;;;6737381;88;20728;-79
2023/06/18 19:36:21;;;;;;;1999.90;999.90;;;28.50;65.90;;;;;;6739360;88;20221;-81
2023/06/18 19:46:21;;;;;;;1999.90;999.90;;;28.30;66.00;;;;;;6740293;88;20724;-81
2023/06/18 19:56:22;;;;;;;1999.90;999.90;;;28.00;66.40;;;;;;6734679;88;20222;-80
2023/06/18 20:06:23;;;;;;;1999.90;999.90;;;27.90;67.50;;;;;;6719491;88;20226;-80
2023/06/18 20:16:26;;;;;;;1999.90;999.90;;;27.60;69.20;;;;;;6720894;88;20317;-79
2023/06/18 20:26:26;;;;;;;;;;;27.40;70.50;;;;;;6722074;88;20268;-80
2023/06/18 20:36:28;;;;;;;1999.90;999.90;;;27.10;72.90;;;;;;6717695;88;20045;-80
2023/06/18 20:46:28;;;;;;;1999.90;999.90;;;26.80;72.50;;;;;;6721710;88;20652;-80
2023/06/18 20:56:29;;;;;;;1999.90;999.90;;;26.30;77.20;;;;;;6722526;88;20219;-81
2023/06/18 21:06:30;;;;;;;1999.90;999.90;;;24.70;93.70;;;;;;6718456;88;20273;-80
2023/06/18 21:16:30;;;;;;;1999.90;999.90;;;23.70;99.90;;;;;;6719480;88;20253;-80
2023/06/18 21:26:31;;;;;;;1999.90;999.90;;;23.20;99.90;;;;;;6713338;88;20198;-80
2023/06/18 21:36:31;;;;;;;1999.90;999.90;;;22.60;99.90;;;;;;6717846;88;20217;-79
2023/06/18 21:46:33;;;;;;;1999.90;999.90;;;22.10;99.90;;;;;;6731008;88;20215;-83
2023/06/18 21:56:33;;;;;;;1999.90;999.90;;;22.00;99.90;;;;;;6722581;88;20279;-80
2023/06/18 22:06:35;;;;;;;1999.90;999.90;;;21.80;99.90;;;;;;6719481;88;20299;-80
2023/06/18 22:16:36;;;;;;;1999.90;999.90;;;21.70;99.90;;;;;;6723994;88;20194;-81
2023/06/18 22:26:37;;;;;;;1999.90;999.90;;;21.80;99.90;;;;;;6717641;88;21059;-80
2023/06/18 22:36:37;;;;;;;1999.90;999.90;;;22.00;99.90;;;;;;6724470;88;20213;-80
2023/06/18 22:46:38;;;;;;;1999.90;999.90;;;22.00;99.90;;;;;;6714959;88;20292;-79
2023/06/18 22:56:38;;;;;;;1999.90;999.90;;;22.00;99.90;;;;;;6715532;88;20215;-79
2023/06/18 23:06:39;;;;;;;1999.90;999.90;;;22.10;99.90;;;;;;6721649;88;20199;-79
2023/06/18 23:16:40;;;;;;;1999.90;999.90;;;22.20;99.90;;;;;;6719081;88;20195;-79
2023/06/18 23:26:41;;;;;;;1999.90;999.90;;;22.20;99.90;;;;;;6720484;88;20208;-79
2023/06/18 23:36:41;;;;;;;1999.90;999.90;;;22.00;99.90;;;;;;6718599;88;20981;-78
2023/06/18 23:46:42;;;;;;;1999.90;999.90;;;21.90;99.90;;;;;;6715537;88;20225;-79
2023/06/18 23:56:42;;;;;;;1999.90;999.90;;;21.90;99.90;;;;;;6723618;88;20248;-79
